Happy Camp, California
Current Conditions -  °F | °C
As of 4:56 AM on Sunday 21 Dec 2014 (Local Time) from KCEC Reporting Station
Haze Haze  
Wind Chill: 58°   Ceiling: 400
Heat Index: 58°   Visibility: 4mi
Dew Point: 58°   Wind: 12mph
Humidity: 100%   Direction: 240°WSW
Pressure: 30.18"   Gusts: NA
Location:  41.79°N, 123.38°W
Report Text: KCEC 211256Z AUTO 24010KT 4SM BR OVC004 14/14 A3018 RMK AO2 RAE44 SLP219 P0001 T01440144
Loading
Personal Weather Stations






























Interactive Weather Map New forecast layout! Learn more

10-Day Weather Forecast

Advertisements
Track Severe Weather on mobile